Terminal Aerodrome Forecast
Issued by NWS Wilmington, NC

Home | Current Version | Previous Version | Text Only | Print | Product List | Glossary On
Versions: 1 2 3 4 5 6 7 8 9 10 11 12 13 14 15 16 17 18 19 20 21 22 23 24 25 26 27 28 29 30
288
FTUS42 KILM 251120
TAFILM
TAF
KILM 251120Z 2512/2612 22012KT P6SM SCT250
     FM251500 24014G24KT P6SM FEW030
     FM251700 24015G25KT P6SM VCTS SCT045CB
     FM252100 25016G27KT P6SM SCT045
     FM260000 24012KT P6SM FEW250
     FM260900 24006KT P6SM SCT250=

USA.gov is the U.S. government's official web portal to all federal, state and local government web resources and services.